Time;durP1;ratioP1;P1;durP2;ratioP2;P2;SDS_P1;SDS_P2;PMS_P1;PMS_P2;Temp;Humidity;BMP_temperature;BMP_pressure;BME280_temperature;BME280_humidity;BME280_pressure;Samples;Min_cycle;Max_cycle;Signal;HPM_P1;HPM_P2
2023/08/08 00:01:51;;;;;;;4.07;1.80;;;16.70;99.90;;;;;;5028844;28;20232;-29
2023/08/08 00:04:20;;;;;;;4.10;1.90;;;16.70;99.90;;;;;;5019535;28;20200;-29
2023/08/08 00:06:48;;;;;;;5.03;1.83;;;16.70;99.90;;;;;;5008483;28;20220;-29
2023/08/08 00:09:15;;;;;;;5.13;1.93;;;16.60;99.90;;;;;;5025385;28;20250;-29
2023/08/08 00:11:44;;;;;;;5.57;1.90;;;16.60;99.90;;;;;;5026417;28;20711;-29
2023/08/08 00:14:12;;;;;;;3.47;1.83;;;16.60;99.90;;;;;;5025007;28;20208;-29
2023/08/08 00:16:39;;;;;;;3.07;1.90;;;16.60;99.90;;;;;;5024975;28;20220;-29
2023/08/08 00:19:06;;;;;;;3.00;1.70;;;16.60;99.90;;;;;;5025438;28;20587;-29
2023/08/08 00:21:33;;;;;;;4.63;2.00;;;16.60;99.90;;;;;;5024904;28;20266;-29
2023/08/08 00:24:00;;;;;;;3.20;1.90;;;16.60;99.90;;;;;;5026176;28;20205;-29
2023/08/08 00:26:28;;;;;;;4.30;1.80;;;16.60;99.90;;;;;;5024474;28;20233;-29
2023/08/08 00:28:55;;;;;;;3.40;1.90;;;16.60;99.90;;;;;;5026377;28;20204;-29
2023/08/08 00:31:25;;;;;;;4.27;2.07;;;16.50;99.90;;;;;;5024693;28;20266;-29
2023/08/08 00:33:52;;;;;;;3.63;1.60;;;16.50;99.90;;;;;;5024152;28;20274;-29
2023/08/08 00:36:22;;;;;;;4.33;1.77;;;16.50;99.90;;;;;;5026156;28;20217;-29
2023/08/08 00:38:51;;;;;;;4.73;1.93;;;16.50;99.90;;;;;;5025858;28;20747;-29
2023/08/08 00:41:21;;;;;;;5.33;1.97;;;16.50;99.90;;;;;;5008898;28;20486;-29
2023/08/08 00:43:53;;;;;;;3.40;1.40;;;16.50;99.90;;;;;;5024493;28;20580;-29
2023/08/08 00:46:22;;;;;;;2.93;1.80;;;16.50;99.90;;;;;;5025698;28;20205;-29
2023/08/08 00:48:50;;;;;;;2.80;1.80;;;16.50;99.90;;;;;;5024439;28;20205;-29
2023/08/08 00:51:21;;;;;;;3.67;2.03;;;16.50;99.90;;;;;;5024685;28;20307;-29
2023/08/08 00:53:49;;;;;;;3.30;1.70;;;16.50;99.90;;;;;;5024698;28;20303;-29
2023/08/08 00:56:17;;;;;;;4.00;1.87;;;16.50;99.90;;;;;;5026297;28;20204;-29
2023/08/08 00:58:50;;;;;;;5.53;2.00;;;16.50;99.90;;;;;;5020410;28;20193;-29
2023/08/08 01:01:19;;;;;;;4.57;1.93;;;16.50;99.90;;;;;;5023822;28;20287;-29
2023/08/08 01:03:46;;;;;;;3.63;1.73;;;16.50;99.90;;;;;;5011534;28;20220;-29
2023/08/08 01:06:45;;;;;;;4.97;1.73;;;16.50;99.90;;;;;;5023047;28;20735;-29
2023/08/08 01:09:32;;;;;;;3.67;1.73;;;16.50;99.90;;;;;;5018419;28;20217;-29
2023/08/08 01:12:10;;;;;;;4.67;1.90;;;16.50;99.90;;;;;;5025505;28;20300;-29
2023/08/08 01:14:45;;;;;;;4.77;2.00;;;16.40;99.90;;;;;;5023733;28;20258;-29
2023/08/08 01:17:16;;;;;;;6.13;2.13;;;16.40;99.90;;;;;;5023895;28;20200;-29
2023/08/08 01:19:49;;;;;;;4.73;1.97;;;16.40;99.90;;;;;;5023750;28;20821;-29
2023/08/08 01:22:32;;;;;;;6.57;2.37;;;16.40;99.90;;;;;;5023897;28;20936;-29
2023/08/08 01:25:02;;;;;;;7.97;2.27;;;16.40;99.90;;;;;;5025850;28;20605;-29
2023/08/08 01:27:32;;;;;;;5.90;2.20;;;16.40;99.90;;;;;;5024055;28;20212;-29
2023/08/08 01:29:59;;;;;;;5.03;2.23;;;16.40;99.90;;;;;;5024278;28;20673;-29
2023/08/08 01:32:29;;;;;;;5.40;2.20;;;16.40;99.90;;;;;;5023504;28;20277;-29
2023/08/08 01:34:59;;;;;;;5.53;2.03;;;16.40;99.90;;;;;;5024061;28;20205;-29
2023/08/08 01:37:35;;;;;;;6.50;2.27;;;16.40;99.90;;;;;;5025149;28;20208;-28
2023/08/08 01:40:05;;;;;;;5.83;2.03;;;16.40;99.90;;;;;;5024259;28;20213;-29
2023/08/08 01:42:37;;;;;;;8.47;2.23;;;16.40;99.90;;;;;;5025859;28;20205;-29
2023/08/08 01:45:05;;;;;;;5.47;1.80;;;16.40;99.90;;;;;;5026134;28;20745;-29
2023/08/08 01:47:41;;;;;;;5.73;2.10;;;16.40;99.90;;;;;;5027639;28;20216;-29
2023/08/08 01:50:13;;;;;;;5.00;2.30;;;16.40;99.90;;;;;;5027982;28;20676;-29
2023/08/08 01:52:40;;;;;;;4.80;1.93;;;16.40;99.90;;;;;;5027605;28;20710;-29
2023/08/08 01:55:08;;;;;;;4.53;1.60;;;16.50;99.90;;;;;;5027428;28;20618;-29
2023/08/08 01:57:35;;;;;;;3.17;1.90;;;16.50;99.90;;;;;;5027375;28;20314;-29
2023/08/08 02:00:06;;;;;;;5.27;2.17;;;16.40;99.90;;;;;;5011089;28;20307;-29
2023/08/08 02:02:35;;;;;;;7.37;2.77;;;16.50;99.90;;;;;;5027341;28;20710;-29
2023/08/08 02:05:05;;;;;;;7.07;2.30;;;16.50;99.90;;;;;;5027353;28;20204;-29
2023/08/08 02:07:33;;;;;;;5.40;2.30;;;16.50;99.90;;;;;;5027126;28;20224;-29
2023/08/08 02:10:00;;;;;;;6.37;2.30;;;16.50;99.90;;;;;;5028933;28;20220;-29
2023/08/08 02:12:29;;;;;;;5.60;2.30;;;16.50;99.90;;;;;;5029127;28;20291;-29
2023/08/08 02:15:01;;;;;;;7.17;2.30;;;16.50;99.90;;;;;;5028581;28;20200;-29
2023/08/08 02:17:29;;;;;;;4.77;2.00;;;16.50;99.90;;;;;;5027055;28;20275;-29
2023/08/08 02:19:56;;;;;;;6.20;2.87;;;16.50;99.90;;;;;;5028423;28;20223;-29
2023/08/08 02:22:25;;;;;;;6.23;2.30;;;16.50;99.90;;;;;;5027040;28;20212;-29
2023/08/08 02:24:52;;;;;;;6.60;2.27;;;16.50;99.90;;;;;;5027260;28;20201;-29
2023/08/08 02:27:19;;;;;;;9.33;2.23;;;16.50;99.90;;;;;;5027049;28;20246;-29
2023/08/08 02:29:47;;;;;;;6.13;2.60;;;16.50;99.90;;;;;;5027243;28;20201;-29
2023/08/08 02:32:14;;;;;;;7.33;2.73;;;16.50;99.90;;;;;;5028187;28;20581;-29
2023/08/08 02:34:44;;;;;;;7.20;2.77;;;16.60;99.90;;;;;;5029059;28;20625;-29
2023/08/08 02:37:11;;;;;;;7.73;2.43;;;16.60;99.90;;;;;;5026698;28;20212;-29
2023/08/08 02:39:38;;;;;;;9.37;2.40;;;16.60;99.90;;;;;;5026559;28;20232;-29
2023/08/08 02:42:06;;;;;;;9.50;2.67;;;16.60;99.90;;;;;;5026865;28;20651;-29
2023/08/08 02:44:35;;;;;;;7.77;2.43;;;16.60;99.90;;;;;;5028356;28;20205;-29
2023/08/08 02:47:07;;;;;;;6.50;2.40;;;16.60;99.90;;;;;;5028612;28;20221;-29
2023/08/08 02:49:35;;;;;;;8.90;2.40;;;16.60;99.90;;;;;;5028393;28;20201;-29
2023/08/08 02:52:05;;;;;;;5.47;2.00;;;16.60;99.90;;;;;;5026425;28;20213;-29
2023/08/08 02:54:32;;;;;;;9.53;2.77;;;16.60;99.90;;;;;;5010935;28;20213;-29
2023/08/08 02:57:00;;;;;;;4.83;2.57;;;16.60;99.90;;;;;;5025796;28;20204;-29
2023/08/08 02:59:27;;;;;;;4.10;2.60;;;16.60;99.90;;;;;;5027819;28;20197;-29
2023/08/08 03:01:55;;;;;;;11.10;2.97;;;16.60;99.90;;;;;;5027496;28;20228;-29
2023/08/08 03:04:22;;;;;;;8.27;2.40;;;16.60;99.90;;;;;;5027579;28;20208;-29
2023/08/08 03:06:57;;;;;;;5.73;2.50;;;16.60;99.90;;;;;;5027779;28;20205;-29
2023/08/08 03:09:27;;;;;;;6.13;2.80;;;16.60;99.90;;;;;;5027582;28;20255;-29
2023/08/08 03:11:55;;;;;;;6.43;2.57;;;16.60;99.90;;;;;;5027394;28;20224;-29
2023/08/08 03:14:22;;;;;;;6.80;2.70;;;16.60;99.90;;;;;;5026072;28;20545;-29
2023/08/08 03:16:53;;;;;;;9.33;2.50;;;16.60;99.90;;;;;;5010142;28;20687;-29
2023/08/08 03:19:21;;;;;;;6.47;2.70;;;16.60;99.90;;;;;;5027695;28;20843;-29
2023/08/08 03:21:48;;;;;;;7.30;2.60;;;16.60;99.90;;;;;;5026650;28;20258;-29
2023/08/08 03:24:18;;;;;;;7.30;2.47;;;16.60;99.90;;;;;;5027626;28;20196;-29
2023/08/08 03:26:45;;;;;;;7.60;2.40;;;16.60;99.90;;;;;;5027119;28;20640;-29
2023/08/08 03:29:12;;;;;;;6.07;2.90;;;16.60;99.90;;;;;;5027425;28;20259;-29
2023/08/08 03:31:40;;;;;;;10.13;2.63;;;16.60;99.90;;;;;;5025582;28;20209;-29
2023/08/08 03:34:07;;;;;;;6.00;2.50;;;16.50;99.90;;;;;;5025748;28;20220;-29
2023/08/08 03:36:34;;;;;;;8.07;2.57;;;16.50;99.90;;;;;;5025728;28;20624;-29
2023/08/08 03:39:03;;;;;;;9.50;2.57;;;16.50;99.90;;;;;;5025502;28;20248;-29
2023/08/08 03:41:39;;;;;;;8.57;2.67;;;16.50;99.90;;;;;;5025599;28;20239;-29
2023/08/08 03:44:10;;;;;;;6.53;2.50;;;16.50;99.90;;;;;;5026889;28;20291;-29
2023/08/08 03:46:40;;;;;;;6.27;2.70;;;16.50;99.90;;;;;;5027117;28;20919;-29
2023/08/08 03:49:08;;;;;;;8.73;2.67;;;16.50;99.90;;;;;;5026784;28;20248;-29
2023/08/08 03:51:40;;;;;;;8.70;3.20;;;16.50;99.90;;;;;;5025418;28;20209;-29
2023/08/08 03:54:09;;;;;;;7.50;2.67;;;16.40;99.90;;;;;;5008958;28;20203;-29
2023/08/08 03:56:39;;;;;;;6.53;2.63;;;16.40;99.90;;;;;;5025563;28;20209;-29
2023/08/08 03:59:09;;;;;;;7.03;2.70;;;16.40;99.90;;;;;;5025672;28;20687;-29
2023/08/08 04:01:39;;;;;;;8.50;2.87;;;16.40;99.90;;;;;;5025789;28;20297;-29
2023/08/08 04:04:06;;;;;;;7.10;3.03;;;16.40;99.90;;;;;;5026297;28;20606;-29
2023/08/08 04:06:33;;;;;;;9.20;3.10;;;16.40;99.90;;;;;;5025037;28;20524;-29
2023/08/08 04:09:01;;;;;;;9.13;3.20;;;16.40;99.90;;;;;;5023971;28;20313;-29
2023/08/08 04:11:35;;;;;;;8.73;3.50;;;16.40;99.90;;;;;;5024984;28;20208;-29
2023/08/08 04:14:04;;;;;;;10.30;3.03;;;16.30;99.90;;;;;;5024907;28;20212;-29
2023/08/08 04:16:34;;;;;;;9.23;3.00;;;16.30;99.90;;;;;;5026273;28;20704;-29
2023/08/08 04:19:03;;;;;;;8.53;3.23;;;16.30;99.90;;;;;;5025024;28;20197;-29
2023/08/08 04:21:33;;;;;;;9.57;3.33;;;16.30;99.90;;;;;;5026346;28;20228;-29
2023/08/08 04:24:02;;;;;;;10.77;3.73;;;16.30;99.90;;;;;;5024666;28;20572;-29
2023/08/08 04:26:29;;;;;;;9.87;3.63;;;16.30;99.90;;;;;;5026032;28;20516;-29
2023/08/08 04:29:08;;;;;;;6.77;3.23;;;16.30;99.90;;;;;;5024706;28;20231;-29
2023/08/08 04:31:37;;;;;;;5.60;3.20;;;16.30;99.90;;;;;;5024893;28;20197;-29
2023/08/08 04:34:07;;;;;;;8.17;3.60;;;16.30;99.90;;;;;;5024823;28;20192;-29
2023/08/08 04:36:34;;;;;;;6.93;3.23;;;16.20;99.90;;;;;;5025314;28;20208;-29
2023/08/08 04:39:01;;;;;;;7.30;3.00;;;16.30;99.90;;;;;;5024272;28;20240;-29
2023/08/08 04:41:31;;;;;;;8.03;3.40;;;16.20;99.90;;;;;;5025924;28;20300;-29
2023/08/08 04:43:58;;;;;;;13.50;3.50;;;16.30;99.90;;;;;;5024441;28;20204;-29
2023/08/08 04:46:28;;;;;;;9.00;3.30;;;16.30;99.90;;;;;;5024466;28;20205;-29
2023/08/08 04:48:56;;;;;;;7.60;3.73;;;16.30;99.90;;;;;;5024351;28;20240;-29
2023/08/08 04:51:24;;;;;;;6.55;3.00;;;16.30;99.90;;;;;;5025685;28;20193;-29
2023/08/08 04:53:51;;;;;;;11.73;3.35;;;16.30;99.90;;;;;;5025748;28;20722;-29
2023/08/08 04:56:19;;;;;;;7.83;3.50;;;16.30;99.90;;;;;;5025401;28;20613;-29
2023/08/08 04:58:46;;;;;;;8.63;3.10;;;16.30;99.90;;;;;;5025825;28;20262;-29
2023/08/08 05:01:15;;;;;;;10.33;3.90;;;16.30;99.90;;;;;;5007743;28;20201;-29
2023/08/08 05:03:42;;;;;;;9.17;3.70;;;16.30;99.90;;;;;;5025592;28;20496;-29
2023/08/08 05:06:10;;;;;;;8.63;2.93;;;16.30;99.90;;;;;;5025822;28;20224;-22
2023/08/08 05:08:37;;;;;;;10.07;3.90;;;16.30;99.90;;;;;;5025588;28;20225;-23
2023/08/08 05:11:05;;;;;;;7.63;3.23;;;16.40;99.90;;;;;;5026244;28;20193;-22
2023/08/08 05:13:33;;;;;;;10.97;3.50;;;16.40;99.90;;;;;;5024763;28;20205;-23
2023/08/08 05:16:00;;;;;;;10.43;3.23;;;16.40;99.90;;;;;;5025682;28;20221;-23
2023/08/08 05:18:27;;;;;;;8.90;2.90;;;16.40;99.90;;;;;;5043301;28;20681;-22
2023/08/08 05:20:54;;;;;;;8.93;3.60;;;16.40;99.90;;;;;;5049137;28;20599;-23
2023/08/08 05:23:29;;;;;;;7.97;3.00;;;16.50;99.90;;;;;;5049849;28;20318;-23
2023/08/08 05:25:56;;;;;;;9.93;3.03;;;16.50;99.90;;;;;;5049680;28;20208;-22
2023/08/08 05:28:24;;;;;;;9.80;3.20;;;16.50;99.90;;;;;;5047676;28;20247;-22
2023/08/08 05:30:54;;;;;;;8.87;3.17;;;16.60;99.90;;;;;;5047717;28;20297;-22
2023/08/08 05:33:21;;;;;;;8.37;3.30;;;16.60;99.90;;;;;;5047713;28;20702;-22
2023/08/08 05:35:48;;;;;;;8.63;2.80;;;16.60;99.90;;;;;;5048844;28;20192;-23
2023/08/08 05:38:16;;;;;;;8.97;2.80;;;16.60;99.90;;;;;;5047396;28;20289;-23
2023/08/08 05:40:43;;;;;;;9.47;3.23;;;16.70;99.90;;;;;;5047487;28;20200;-23
2023/08/08 05:43:10;;;;;;;10.40;2.53;;;16.70;99.90;;;;;;5031511;28;20678;-22
2023/08/08 05:45:37;;;;;;;9.13;2.90;;;16.70;99.90;;;;;;5048952;28;20295;-22
2023/08/08 05:48:05;;;;;;;9.57;2.47;;;16.70;99.90;;;;;;5047811;28;20220;-23
2023/08/08 05:50:32;;;;;;;7.53;2.70;;;16.80;99.90;;;;;;5048758;28;20192;-22
2023/08/08 05:53:00;;;;;;;9.53;3.03;;;16.80;99.90;;;;;;5047412;28;20677;-23
2023/08/08 05:55:27;;;;;;;9.60;3.00;;;16.80;99.90;;;;;;5030904;28;20204;-22
2023/08/08 05:57:57;;;;;;;8.00;3.27;;;16.80;99.90;;;;;;5048623;28;20213;-22
2023/08/08 06:00:24;;;;;;;8.27;2.90;;;16.90;99.90;;;;;;5048814;28;20258;-22
2023/08/08 06:02:51;;;;;;;7.30;3.23;;;16.90;99.90;;;;;;5046972;28;20208;-22
2023/08/08 06:05:24;;;;;;;7.67;2.67;;;16.90;99.90;;;;;;5048643;28;20224;-22
2023/08/08 06:07:51;;;;;;;10.00;3.17;;;17.00;99.90;;;;;;5031015;28;20224;-23
2023/08/08 06:10:22;;;;;;;9.17;3.03;;;17.00;99.90;;;;;;5049200;28;20204;-22
2023/08/08 06:12:54;;;;;;;11.00;3.20;;;17.10;99.90;;;;;;5048447;28;20726;-22
2023/08/08 06:15:24;;;;;;;13.25;3.60;;;17.20;99.90;;;;;;5046732;28;20575;-22
2023/08/08 06:17:51;;;;;;;10.33;3.00;;;17.20;99.90;;;;;;5048348;28;20662;-22
2023/08/08 06:20:21;;;;;;;12.00;2.93;;;17.30;99.90;;;;;;5047307;28;20437;-22
2023/08/08 06:22:49;;;;;;;7.07;2.77;;;17.30;99.90;;;;;;5048748;28;20570;-23
2023/08/08 06:25:16;;;;;;;8.23;3.17;;;17.30;99.90;;;;;;5049261;28;20714;-22
2023/08/08 06:27:49;;;;;;;11.07;3.53;;;17.40;99.90;;;;;;5048261;28;20686;-23
2023/08/08 06:30:23;;;;;;;11.97;3.47;;;17.40;99.90;;;;;;5045794;28;20207;-22
2023/08/08 06:32:52;;;;;;;8.43;3.50;;;17.40;99.90;;;;;;5046330;28;20223;-22
2023/08/08 06:35:22;;;;;;;10.47;3.10;;;17.40;99.90;;;;;;5046826;28;20200;-23
2023/08/08 06:37:51;;;;;;;6.20;2.77;;;17.50;99.90;;;;;;5029681;28;20642;-29
2023/08/08 06:40:21;;;;;;;8.57;3.20;;;17.50;99.90;;;;;;5046383;28;20200;-29
2023/08/08 06:42:48;;;;;;;17.07;4.50;;;17.50;99.90;;;;;;5047734;28;20218;-29
2023/08/08 06:45:15;;;;;;;53.03;10.87;;;17.60;99.90;;;;;;5048049;28;20577;-29
2023/08/08 06:47:42;;;;;;;41.40;7.40;;;17.60;99.90;;;;;;5046018;28;20785;-29
2023/08/08 06:50:14;;;;;;;14.97;4.13;;;17.60;99.90;;;;;;5046312;28;20196;-29
2023/08/08 06:52:44;;;;;;;15.53;4.10;;;17.60;99.90;;;;;;5046213;28;20192;-29
2023/08/08 06:55:11;;;;;;;11.07;3.30;;;17.70;99.90;;;;;;5046459;28;20196;-29
2023/08/08 06:57:38;;;;;;;7.47;2.77;;;17.70;99.90;;;;;;5046332;28;20790;-29
2023/08/08 07:00:08;;;;;;;5.97;2.60;;;17.80;99.90;;;;;;5046765;28;20200;-29
2023/08/08 07:02:36;;;;;;;8.73;3.17;;;17.80;99.90;;;;;;5046612;28;20211;-29
2023/08/08 07:05:03;;;;;;;9.53;2.93;;;17.90;99.90;;;;;;5047508;28;20242;-29
2023/08/08 07:07:33;;;;;;;7.10;2.93;;;18.00;99.90;;;;;;5046054;28;20200;-29
2023/08/08 07:10:03;;;;;;;8.30;2.65;;;18.00;99.90;;;;;;5047514;28;20797;-29
2023/08/08 07:12:31;;;;;;;5.87;2.60;;;18.00;99.90;;;;;;5047389;28;20192;-29
2023/08/08 07:15:00;;;;;;;12.93;3.47;;;18.10;99.90;;;;;;5046018;28;20223;-29
2023/08/08 07:17:27;;;;;;;12.55;3.20;;;18.20;99.90;;;;;;5045892;28;20200;-29
2023/08/08 07:19:54;;;;;;;8.32;2.60;;;18.20;99.90;;;;;;5045966;28;20209;-29
2023/08/08 07:22:22;;;;;;;8.48;3.08;;;18.40;99.90;;;;;;5047654;28;20551;-29
2023/08/08 07:24:52;;;;;;;10.55;2.80;;;18.40;99.90;;;;;;5047043;28;20608;-29
2023/08/08 07:27:20;;;;;;;9.95;2.70;;;18.50;99.90;;;;;;5029063;28;20258;-29
2023/08/08 07:29:47;;;;;;;5.32;2.55;;;18.50;99.90;;;;;;5046982;28;20238;-29
2023/08/08 07:32:17;;;;;;;8.40;3.05;;;18.60;99.90;;;;;;5045458;28;20291;-29
2023/08/08 07:34:44;;;;;;;10.32;3.05;;;18.60;99.90;;;;;;5045156;28;20291;-29
2023/08/08 07:37:17;;;;;;;7.68;2.58;;;18.70;99.90;;;;;;5045904;28;20208;-29
2023/08/08 07:39:44;;;;;;;9.15;2.90;;;18.80;99.90;;;;;;5028879;28;20293;-29
2023/08/08 07:42:11;;;;;;;7.10;2.80;;;18.80;99.90;;;;;;5046384;28;20216;-29
2023/08/08 07:44:38;;;;;;;7.15;2.33;;;18.80;99.90;;;;;;5045318;28;20246;-29
2023/08/08 07:47:09;;;;;;;9.23;2.97;;;18.80;99.90;;;;;;5044956;28;20200;-29
2023/08/08 07:49:41;;;;;;;8.35;2.90;;;18.90;99.90;;;;;;5046848;28;20236;-29
2023/08/08 07:52:14;;;;;;;8.88;3.20;;;19.00;99.90;;;;;;5029965;28;20295;-29
2023/08/08 07:54:41;;;;;;;8.88;3.00;;;19.00;99.90;;;;;;5046623;28;20200;-29
2023/08/08 07:57:11;;;;;;;8.63;3.10;;;19.00;99.90;;;;;;5045215;28;20202;-29
2023/08/08 07:59:49;;;;;;;9.82;3.40;;;19.10;99.90;;;;;;5046381;28;20215;-30
2023/08/08 08:02:19;;;;;;;7.73;2.77;;;19.10;99.90;;;;;;5046339;28;20200;-29
2023/08/08 08:04:46;;;;;;;7.78;2.88;;;19.10;99.90;;;;;;5044852;28;20254;-29
2023/08/08 08:07:13;;;;;;;8.43;3.00;;;19.10;99.90;;;;;;5046674;28;20270;-29
2023/08/08 08:09:43;;;;;;;5.85;2.97;;;19.10;99.90;;;;;;5046361;28;20216;-29
2023/08/08 08:12:10;;;;;;;9.90;3.47;;;19.10;99.90;;;;;;5046136;28;20224;-29
2023/08/08 08:14:37;;;;;;;7.43;2.90;;;19.20;99.90;;;;;;5045307;28;20211;-29
2023/08/08 08:17:05;;;;;;;8.13;3.30;;;19.20;99.90;;;;;;5044510;28;20212;-29
2023/08/08 08:19:32;;;;;;;8.38;3.75;;;19.30;99.90;;;;;;5028243;28;20193;-29
2023/08/08 08:21:59;;;;;;;10.00;3.60;;;19.40;99.90;;;;;;5046493;28;20270;-30
2023/08/08 08:24:29;;;;;;;8.02;3.38;;;19.40;99.90;;;;;;5046149;28;20452;-29
2023/08/08 08:26:56;;;;;;;6.80;3.17;;;19.40;99.90;;;;;;5045785;28;20681;-29
2023/08/08 08:29:26;;;;;;;7.68;3.63;;;19.40;99.90;;;;;;5044292;28;20244;-29
2023/08/08 08:31:53;;;;;;;9.52;3.60;;;19.50;99.90;;;;;;5045783;28;20204;-29
2023/08/08 08:34:20;;;;;;;7.53;3.45;;;19.50;99.90;;;;;;5045766;28;20673;-29
2023/08/08 08:36:47;;;;;;;9.68;3.75;;;19.50;99.90;;;;;;5045670;28;20258;-29
2023/08/08 08:39:14;;;;;;;9.68;3.40;;;19.60;99.90;;;;;;5044097;28;20236;-29
2023/08/08 08:41:58;;;;;;;7.65;3.33;;;19.50;99.90;;;;;;5044457;28;20279;-29
2023/08/08 08:44:29;;;;;;;8.20;3.42;;;19.60;99.90;;;;;;5045761;28;20311;-29
2023/08/08 08:47:01;;;;;;;8.98;3.80;;;19.60;99.90;;;;;;5045998;28;21050;-29
2023/08/08 08:49:36;;;;;;;7.03;3.10;;;19.60;99.90;;;;;;5044660;28;20219;-29
2023/08/08 08:52:05;;;;;;;8.45;3.25;;;19.70;99.90;;;;;;5044609;28;20551;-29
2023/08/08 08:54:35;;;;;;;6.55;3.00;;;19.70;99.90;;;;;;5045248;28;20215;-29
2023/08/08 08:57:04;;;;;;;7.63;3.42;;;19.70;99.90;;;;;;5045543;28;20207;-29
2023/08/08 08:59:34;;;;;;;10.65;3.22;;;19.80;99.90;;;;;;5028154;28;20246;-29
2023/08/08 09:02:02;;;;;;;9.80;3.35;;;19.80;99.90;;;;;;5045727;28;20223;-29
2023/08/08 09:04:31;;;;;;;8.15;2.97;;;19.80;99.90;;;;;;5043903;28;20567;-29
2023/08/08 09:06:59;;;;;;;7.13;2.35;;;19.90;99.90;;;;;;5045459;28;20208;-29
2023/08/08 09:09:26;;;;;;;8.80;2.97;;;19.90;99.90;;;;;;5043831;28;20757;-29
2023/08/08 09:11:56;;;;;;;12.02;3.25;;;19.90;99.90;;;;;;5043897;28;20211;-23
2023/08/08 09:14:33;;;;;;;6.13;2.67;;;20.00;99.90;;;;;;5043694;28;20546;-22
2023/08/08 09:17:04;;;;;;;5.40;2.70;;;20.00;99.90;;;;;;5045244;28;20200;-23
2023/08/08 09:19:31;;;;;;;7.68;2.53;;;20.00;99.90;;;;;;5043931;28;20266;-22
2023/08/08 09:22:01;;;;;;;8.70;2.85;;;20.10;99.90;;;;;;5043729;28;20269;-22
2023/08/08 09:24:29;;;;;;;5.90;2.70;;;20.10;99.90;;;;;;5044081;28;20204;-22
2023/08/08 09:26:56;;;;;;;6.07;2.47;;;20.10;99.90;;;;;;5027751;28;20203;-22
2023/08/08 09:29:23;;;;;;;7.05;2.95;;;20.20;99.90;;;;;;5043305;28;20337;-22
2023/08/08 09:31:52;;;;;;;6.85;2.97;;;20.20;99.90;;;;;;5045176;28;20196;-22
2023/08/08 09:34:25;;;;;;;9.27;3.22;;;20.30;99.90;;;;;;5044951;28;20197;-22
2023/08/08 09:36:55;;;;;;;7.78;3.00;;;20.30;99.90;;;;;;5043758;28;20207;-22
2023/08/08 09:39:26;;;;;;;6.53;2.70;;;20.30;99.90;;;;;;5043391;28;20242;-22
2023/08/08 09:42:03;;;;;;;6.75;2.60;;;20.30;99.90;;;;;;5043389;28;20207;-22
2023/08/08 09:44:34;;;;;;;8.55;2.70;;;20.40;99.90;;;;;;5045070;28;20295;-22
2023/08/08 09:47:12;;;;;;;6.57;2.53;;;20.40;99.90;;;;;;5045292;28;20850;-22
2023/08/08 09:49:40;;;;;;;9.48;2.67;;;20.40;99.90;;;;;;5043376;28;20311;-22
2023/08/08 09:52:08;;;;;;;5.25;2.35;;;20.40;99.90;;;;;;5043740;28;20219;-22
2023/08/08 09:54:41;;;;;;;6.68;2.63;;;20.40;99.90;;;;;;5026462;28;20646;-22
2023/08/08 09:57:08;;;;;;;7.45;2.50;;;20.50;99.90;;;;;;5044950;28;20208;-22
2023/08/08 09:59:38;;;;;;;5.45;2.40;;;20.50;99.90;;;;;;5043670;28;20281;-22
2023/08/08 10:02:13;;;;;;;7.15;2.45;;;20.50;99.90;;;;;;5045378;28;20609;-22
2023/08/08 10:04:53;;;;;;;6.90;2.50;;;20.60;99.90;;;;;;5043140;28;20306;-22
2023/08/08 10:07:23;;;;;;;7.25;2.70;;;20.60;99.90;;;;;;5049152;28;20576;-22
2023/08/08 10:09:51;;;;;;;5.18;2.28;;;20.50;99.90;;;;;;5030613;28;20286;-22
2023/08/08 10:12:18;;;;;;;7.72;2.38;;;20.50;99.90;;;;;;5047036;28;20301;-22
2023/08/08 10:14:49;;;;;;;6.97;2.05;;;20.50;99.90;;;;;;5048297;28;20763;-22
2023/08/08 10:17:18;;;;;;;8.35;2.28;;;20.60;99.90;;;;;;5046780;28;20212;-22
2023/08/08 10:19:53;;;;;;;5.57;2.28;;;20.50;99.90;;;;;;5048498;28;20200;-23
2023/08/08 10:22:23;;;;;;;5.00;2.40;;;20.60;99.90;;;;;;5048680;28;20701;-23
2023/08/08 10:24:53;;;;;;;6.80;2.25;;;20.50;99.90;;;;;;5048089;28;20614;-23
2023/08/08 10:27:35;;;;;;;5.97;2.28;;;20.50;99.90;;;;;;5047819;28;20607;-23
2023/08/08 10:30:09;;;;;;;6.40;2.05;;;20.50;99.90;;;;;;5030238;28;20235;-23
2023/08/08 10:32:46;;;;;;;5.40;2.15;;;20.50;99.90;;;;;;5046420;28;20250;-23
2023/08/08 10:35:14;;;;;;;6.28;2.10;;;20.60;99.90;;;;;;5047978;28;20623;-23
2023/08/08 10:37:53;;;;;;;7.68;2.13;;;20.50;99.90;;;;;;5047185;28;20578;-23
2023/08/08 10:40:20;;;;;;;4.13;1.83;;;20.50;99.90;;;;;;5048024;28;20270;-23
2023/08/08 10:42:53;;;;;;;3.85;2.00;;;20.50;99.90;;;;;;5046252;28;20254;-23
2023/08/08 10:45:28;;;;;;;8.82;2.20;;;20.50;99.90;;;;;;5046267;28;20215;-23
2023/08/08 10:47:56;;;;;;;3.80;1.67;;;20.50;99.90;;;;;;5046257;28;20547;-23
2023/08/08 10:50:25;;;;;;;5.05;2.20;;;20.50;99.90;;;;;;5045923;28;20230;-23
2023/08/08 10:52:56;;;;;;;4.50;2.05;;;20.50;99.90;;;;;;5045850;28;20631;-23
2023/08/08 10:55:27;;;;;;;7.57;2.10;;;20.50;99.90;;;;;;5047555;28;20204;-23
2023/08/08 10:57:59;;;;;;;4.72;2.00;;;20.60;99.90;;;;;;5045729;28;20204;-23
2023/08/08 11:00:35;;;;;;;6.55;1.65;;;20.60;99.90;;;;;;5047278;28;20962;-23
2023/08/08 11:03:08;;;;;;;5.80;2.08;;;20.50;99.90;;;;;;5045745;28;20216;-23
2023/08/08 11:05:38;;;;;;;4.82;1.73;;;20.50;99.90;;;;;;5045882;28;20212;-23
2023/08/08 11:08:08;;;;;;;4.72;1.67;;;20.60;99.90;;;;;;5047014;28;20212;-23
2023/08/08 11:10:39;;;;;;;5.90;1.80;;;20.60;99.90;;;;;;5045545;28;20281;-23
2023/08/08 11:13:07;;;;;;;4.35;2.03;;;20.50;99.90;;;;;;5047579;28;20681;-23
2023/08/08 11:15:36;;;;;;;5.32;1.70;;;20.50;99.90;;;;;;5046086;28;20274;-23
2023/08/08 11:18:04;;;;;;;3.17;1.77;;;20.50;99.90;;;;;;5046511;28;20196;-23
2023/08/08 11:20:36;;;;;;;2.47;1.60;;;20.50;99.90;;;;;;5045687;28;20735;-23
2023/08/08 11:23:10;;;;;;;2.83;1.45;;;20.40;99.90;;;;;;5047036;28;20212;-23
2023/08/08 11:25:43;;;;;;;5.70;2.03;;;20.50;99.90;;;;;;5047003;28;20191;-23
2023/08/08 11:28:12;;;;;;;4.03;1.83;;;20.50;99.90;;;;;;5047114;28;20231;-23
2023/08/08 11:30:45;;;;;;;4.40;1.80;;;20.40;99.90;;;;;;5047010;28;20309;-23
2023/08/08 11:33:15;;;;;;;4.43;1.98;;;20.50;99.90;;;;;;5045328;28;20206;-23
2023/08/08 11:35:51;;;;;;;6.30;1.80;;;20.50;99.90;;;;;;5044991;28;20204;-23
2023/08/08 11:38:20;;;;;;;4.28;1.90;;;20.50;99.90;;;;;;5046118;28;20778;-23
2023/08/08 11:40:48;;;;;;;4.38;1.55;;;20.50;99.90;;;;;;5046915;28;20207;-23
2023/08/08 11:43:15;;;;;;;2.30;1.42;;;20.60;99.90;;;;;;5046789;28;20219;-23
2023/08/08 11:45:49;;;;;;;4.15;1.60;;;20.70;99.90;;;;;;5045096;28;20196;-23
2023/08/08 11:48:20;;;;;;;4.20;1.45;;;20.70;99.90;;;;;;5046610;28;20356;-23
2023/08/08 11:50:53;;;;;;;2.75;1.42;;;20.70;99.90;;;;;;5046555;28;20745;-23
2023/08/08 11:53:23;;;;;;;2.55;1.40;;;20.80;99.90;;;;;;5044860;28;20213;-23
2023/08/08 11:55:51;;;;;;;3.70;1.60;;;20.70;99.90;;;;;;5044858;28;20618;-23
2023/08/08 11:58:23;;;;;;;3.75;1.30;;;20.70;99.90;;;;;;5028762;28;20294;-23
2023/08/08 12:00:51;;;;;;;2.72;1.70;;;20.90;99.90;;;;;;5046645;28;20686;-23
2023/08/08 12:03:19;;;;;;;3.42;1.80;;;20.90;99.90;;;;;;5044410;28;20200;-23
2023/08/08 12:05:47;;;;;;;2.70;1.33;;;20.90;99.90;;;;;;5044206;28;21018;-23
2023/08/08 12:08:21;;;;;;;2.83;1.52;;;20.90;99.90;;;;;;5044859;28;20623;-23
2023/08/08 12:10:56;;;;;;;3.00;1.30;;;21.00;99.90;;;;;;5044559;28;20314;-23
2023/08/08 12:13:28;;;;;;;2.90;1.40;;;21.00;99.90;;;;;;5044412;28;20246;-22
2023/08/08 12:15:55;;;;;;;3.78;1.40;;;21.00;99.90;;;;;;5045754;28;20974;-23
2023/08/08 12:18:22;;;;;;;4.20;1.52;;;21.10;99.90;;;;;;5044234;28;20678;-22
2023/08/08 12:20:52;;;;;;;3.38;1.48;;;21.10;99.90;;;;;;5045756;28;20258;-22
2023/08/08 12:23:19;;;;;;;5.28;1.17;;;21.10;99.90;;;;;;5045976;28;20730;-22
2023/08/08 12:25:47;;;;;;;3.50;1.10;;;21.10;99.90;;;;;;5044772;28;20223;-23
2023/08/08 12:28:14;;;;;;;2.88;1.20;;;21.10;99.90;;;;;;5045403;28;20204;-22
2023/08/08 12:30:41;;;;;;;3.25;1.55;;;21.00;99.90;;;;;;5045476;28;20686;-22
2023/08/08 12:33:08;;;;;;;3.70;1.40;;;21.00;99.90;;;;;;5044459;28;20671;-22
2023/08/08 12:35:36;;;;;;;2.78;1.20;;;21.00;99.90;;;;;;5044553;28;20303;-23
2023/08/08 12:38:05;;;;;;;1.90;1.30;;;21.00;99.90;;;;;;5045782;28;20236;-22
2023/08/08 12:40:37;;;;;;;4.43;1.50;;;21.00;99.90;;;;;;5044231;28;20207;-22
2023/08/08 12:43:04;;;;;;;2.05;1.40;;;21.00;99.90;;;;;;5045709;28;20208;-22
2023/08/08 12:45:32;;;;;;;4.25;1.50;;;21.10;99.90;;;;;;5045343;28;20239;-22
2023/08/08 12:47:59;;;;;;;4.25;1.50;;;21.10;99.90;;;;;;5045569;28;20469;-23
2023/08/08 12:50:27;;;;;;;3.42;1.60;;;21.10;99.90;;;;;;5043994;28;20331;-23
2023/08/08 12:52:54;;;;;;;3.53;1.27;;;21.10;99.90;;;;;;5045654;28;20313;-23
2023/08/08 12:55:24;;;;;;;2.83;1.10;;;21.20;99.90;;;;;;5045563;28;20222;-23
2023/08/08 12:57:54;;;;;;;3.90;1.05;;;21.20;99.90;;;;;;5045390;28;20269;-24